This is the latest recevied weather packets stored in our database for station/object DK4EP-10. If no packets are shown the sender has not sent any weather packets the latest 1 day(s).
| Time | Temp. | Humidity | Pressure | Rain* | Wind** | Luminosity | Snow |
|---|---|---|---|---|---|---|---|
| 1778105344 | 11.11° C | 100% | 984 hPa | - | - | - | - |
| 1778104443 | 11.11° C | 100% | 984 hPa | - | - | - | - |
| 1778100838 | 11.11° C | 100% | 984 hPa | - | - | - | - |
| 1778099937 | 11.67° C | 100% | 984 hPa | - | - | - | - |
| 1778095431 | 12.22° C | 100% | 984 hPa | - | - | - | - |
| 1778094530 | 12.22° C | 100% | 983 hPa | - | - | - | - |
| 1778093629 | 12.78° C | 100% | 983 hPa | - | - | - | - |
| 1778090024 | 15.56° C | 93% | 983 hPa | - | - | - | - |
| 1778086419 | 18.33° C | 83% | 982 hPa | - | - | - | - |
| 1778085518 | 17.78° C | 82% | 982 hPa | - | - | - | - |
| 1778081913 | 18.89° C | 75% | 982 hPa | - | - | - | - |
| 1778081011 | 21.11° C | 66% | 982 hPa | - | - | - | - |
| 1778080110 | 20.56° C | 73% | 982 hPa | - | - | - | - |
| 1778076505 | 22.78° C | 64% | 983 hPa | - | - | - | - |
| 1778075604 | 23.33° C | 63% | 983 hPa | - | - | - | - |
| 1778074703 | 22.22° C | 65% | 983 hPa | - | - | - | - |
| 1778071098 | 20.56° C | 71% | 983 hPa | - | - | - | - |
| 1778070197 | 20.56° C | 71% | 983 hPa | - | - | - | - |
| 1778066592 | 19.44° C | 76% | 983 hPa | - | - | - | - |
| 1778065691 | 20° C | 75% | 983 hPa | - | - | - | - |
| 1778062085 | 19.44° C | 76% | 983 hPa | - | - | - | - |
| 1778061184 | 18.33° C | 78% | 983 hPa | - | - | - | - |
| 1778060283 | 17.78° C | 77% | 983 hPa | - | - | - | - |
| 1778057579 | 18.89° C | 72% | 982 hPa | - | - | - | - |
| 1778056678 | 20° C | 73% | 982 hPa | - | - | - | - |
* Rain since midnight (hover to see other rain measurements)
** Current wind speed in m/s (hover to see current wind gust speed)